Time;durP1;ratioP1;P1;durP2;ratioP2;P2;SDS_P1;SDS_P2;PMS_P1;PMS_P2;Temp;Humidity;BMP_temperature;BMP_pressure;BME280_temperature;BME280_humidity;BME280_pressure;Samples;Min_cycle;Max_cycle;Signal;HPM_P1;HPM_P2
2022/12/03 00:02:14;;;;;;;22.48;14.38;;;;;;;;;;5042098;28;20037;-72
2022/12/03 00:04:40;;;;;;;25.00;14.52;;;;;;;;;;5046347;28;20048;-72
2022/12/03 00:07:06;;;;;;;26.27;15.20;;;;;;;;;;5034927;28;20397;-72
2022/12/03 00:09:32;;;;;;;23.80;14.90;;;;;;;;;;5040045;28;20091;-72
2022/12/03 00:11:58;;;;;;;23.40;14.63;;;;;;;;;;5047714;28;20047;-73
2022/12/03 00:14:24;;;;;;;21.52;14.40;;;;;;;;;;5045550;28;20030;-72
2022/12/03 00:16:50;;;;;;;23.52;14.30;;;;;;;;;;5025877;28;20053;-72
2022/12/03 00:19:16;;;;;;;22.60;14.70;;;;;;;;;;5047455;28;20056;-73
2022/12/03 00:21:42;;;;;;;22.55;14.05;;;;;;;;;;5025349;28;20041;-74
2022/12/03 00:24:08;;;;;;;24.63;14.50;;;;;;;;;;5045790;28;20091;-74
2022/12/03 00:26:43;;;;;;;24.40;15.48;;;;;;;;;;5027969;28;20348;-74
2022/12/03 00:29:10;;;;;;;25.25;15.02;;;;;;;;;;5024977;28;20053;-74
2022/12/03 00:31:36;;;;;;;24.83;14.60;;;;;;;;;;5029150;28;20116;-74
2022/12/03 00:34:02;;;;;;;25.73;15.95;;;;;;;;;;5031306;28;20077;-74
2022/12/03 00:36:28;;;;;;;23.55;14.23;;;;;;;;;;5044664;28;20041;-74
2022/12/03 00:38:54;;;;;;;23.52;14.48;;;;;;;;;;5043881;28;20459;-74
2022/12/03 00:41:20;;;;;;;25.73;14.88;;;;;;;;;;5045908;28;21529;-74
2022/12/03 00:43:46;;;;;;;21.45;14.02;;;;;;;;;;5026478;28;20057;-74
2022/12/03 00:46:12;;;;;;;22.27;13.68;;;;;;;;;;5029498;28;20461;-73
2022/12/03 00:48:38;;;;;;;23.15;14.13;;;;;;;;;;5028817;28;20474;-73
2022/12/03 00:51:04;;;;;;;24.08;14.23;;;;;;;;;;5044395;28;20049;-73
2022/12/03 00:53:30;;;;;;;24.05;14.43;;;;;;;;;;5025015;28;20686;-73
2022/12/03 00:55:56;;;;;;;20.20;13.50;;;;;;;;;;5043583;28;20087;-73
2022/12/03 00:58:22;;;;;;;22.23;13.30;;;;;;;;;;5043672;28;20099;-73
2022/12/03 01:00:48;;;;;;;21.05;13.32;;;;;;;;;;5030831;28;20045;-73
2022/12/03 01:03:14;;;;;;;21.35;11.82;;;;;;;;;;5048339;28;20077;-74
2022/12/03 01:05:40;;;;;;;21.25;12.63;;;;;;;;;;5028697;28;20487;-74
2022/12/03 01:08:06;;;;;;;20.02;11.73;;;;;;;;;;5047733;28;20552;-74
2022/12/03 01:10:32;;;;;;;21.25;11.85;;;;;;;;;;5044855;28;20125;-74
2022/12/03 01:12:58;;;;;;;19.70;11.80;;;;;;;;;;5041460;28;20040;-74
2022/12/03 01:15:24;;;;;;;18.67;11.07;;;;;;;;;;5030762;28;20037;-74
2022/12/03 01:17:50;;;;;;;16.45;10.05;;;;;;;;;;5025695;28;20057;-74
2022/12/03 01:20:16;;;;;;;18.05;10.32;;;;;;;;;;5027948;28;20041;-74
2022/12/03 01:22:42;;;;;;;17.58;10.57;;;;;;;;;;5027438;28;20048;-74
2022/12/03 01:25:08;;;;;;;17.80;10.13;;;;;;;;;;5045108;28;20060;-74
2022/12/03 01:27:34;;;;;;;15.85;9.65;;;;;;;;;;5025466;28;20045;-74
2022/12/03 01:30:00;;;;;;;16.25;9.68;;;;;;;;;;5026786;28;20132;-74
2022/12/03 01:32:26;;;;;;;13.55;9.00;;;;;;;;;;5023996;28;20123;-73
2022/12/03 01:34:53;;;;;;;15.55;9.95;;;;;;;;;;5048824;28;20056;-74
2022/12/03 01:37:20;;;;;;;15.75;9.65;;;;;;;;;;5031910;28;20052;-73
2022/12/03 01:39:46;;;;;;;12.93;8.80;;;;;;;;;;5050316;28;20041;-73
2022/12/03 01:42:16;;;;;;;14.38;9.38;;;;;;;;;;5032380;28;20064;-73
2022/12/03 01:44:43;;;;;;;17.05;9.68;;;;;;;;;;5035056;28;20182;-73
2022/12/03 01:47:14;;;;;;;12.52;8.93;;;;;;;;;;5035488;28;20051;-73
2022/12/03 01:49:51;;;;;;;15.27;9.25;;;;;;;;;;5031658;28;20053;-73
2022/12/03 01:52:19;;;;;;;16.90;8.75;;;;;;;;;;5029263;28;20439;-74
2022/12/03 01:54:46;;;;;;;15.23;9.80;;;;;;;;;;5027405;28;20045;-74
2022/12/03 01:57:20;;;;;;;16.98;10.40;;;;;;;;;;5044550;28;20051;-74
2022/12/03 01:59:46;;;;;;;;;;;;;;;;;;5028103;28;20496;-74
2022/12/03 02:02:13;;;;;;;14.90;9.55;;;;;;;;;;5034041;28;20015;-73
2022/12/03 02:04:39;;;;;;;14.43;9.45;;;;;;;;;;5048595;28;20053;-74
2022/12/03 02:07:18;;;;;;;15.13;9.80;;;;;;;;;;5040622;28;20503;-74
2022/12/03 02:09:44;;;;;;;14.82;10.05;;;;;;;;;;5027913;28;20049;-74
2022/12/03 02:12:10;;;;;;;16.08;9.80;;;;;;;;;;5043794;28;20059;-73
2022/12/03 02:14:36;;;;;;;15.35;9.23;;;;;;;;;;5047219;28;20053;-74
2022/12/03 02:17:02;;;;;;;15.27;9.60;;;;;;;;;;5043365;28;20524;-74
2022/12/03 02:19:28;;;;;;;17.02;9.63;;;;;;;;;;5047698;28;20124;-74
2022/12/03 02:22:00;;;;;;;16.98;10.10;;;;;;;;;;5047809;28;20049;-74
2022/12/03 02:24:36;;;;;;;14.63;9.75;;;;;;;;;;5045941;28;20379;-74
2022/12/03 02:27:03;;;;;;;19.20;10.10;;;;;;;;;;5030803;28;20098;-73
2022/12/03 02:29:29;;;;;;;14.77;8.82;;;;;;;;;;5046968;28;20095;-74
2022/12/03 02:31:55;;;;;;;12.90;8.82;;;;;;;;;;5047322;28;20045;-74
2022/12/03 02:34:38;;;;;;;13.60;9.80;;;;;;;;;;5031318;28;20071;-73
2022/12/03 02:37:05;;;;;;;13.35;9.27;;;;;;;;;;5026473;28;20135;-74
2022/12/03 02:39:32;;;;;;;15.02;9.45;;;;;;;;;;5044261;28;20079;-74
2022/12/03 02:44:42;;;;;;;14.15;8.98;;;;;;;;;;5026125;28;20059;-74
2022/12/03 02:47:09;;;;;;;14.73;9.63;;;;;;;;;;5027229;28;20075;-74
2022/12/03 02:49:35;;;;;;;15.43;10.07;;;;;;;;;;5030259;28;20055;-74
2022/12/03 02:52:01;;;;;;;17.23;10.38;;;;;;;;;;5045968;28;20084;-73
2022/12/03 02:54:27;;;;;;;17.75;9.23;;;;;;;;;;5046540;28;20037;-74
2022/12/03 02:56:53;;;;;;;17.50;10.27;;;;;;;;;;5038984;28;20140;-74
2022/12/03 02:59:19;;;;;;;15.23;10.73;;;;;;;;;;5049252;28;20123;-73
2022/12/03 03:01:45;;;;;;;17.67;11.18;;;;;;;;;;5029323;28;20511;-74
2022/12/03 03:04:11;;;;;;;16.02;11.15;;;;;;;;;;5053871;28;20044;-74
2022/12/03 03:06:37;;;;;;;16.35;10.10;;;;;;;;;;5029665;28;20048;-74
2022/12/03 03:09:03;;;;;;;15.93;9.93;;;;;;;;;;5045312;28;20041;-73
2022/12/03 03:11:29;;;;;;;16.63;10.13;;;;;;;;;;5048822;28;20049;-74
2022/12/03 03:13:55;;;;;;;17.15;9.93;;;;;;;;;;5024174;28;20045;-74
2022/12/03 03:16:21;;;;;;;17.60;10.20;;;;;;;;;;5050260;28;20041;-74
2022/12/03 03:18:48;;;;;;;16.05;10.48;;;;;;;;;;5027289;28;20048;-74
2022/12/03 03:21:14;;;;;;;15.13;9.77;;;;;;;;;;5050511;28;20507;-73
2022/12/03 03:23:40;;;;;;;14.38;9.35;;;;;;;;;;5029178;28;20045;-74
2022/12/03 03:26:10;;;;;;;15.70;10.02;;;;;;;;;;5033446;28;20051;-73
2022/12/03 03:28:38;;;;;;;15.93;10.85;;;;;;;;;;5031708;28;20049;-74
2022/12/03 03:31:05;;;;;;;15.73;9.68;;;;;;;;;;5047332;28;20043;-73
2022/12/03 03:33:31;;;;;;;15.35;10.35;;;;;;;;;;5030830;28;20053;-73
2022/12/03 03:35:59;;;;;;;15.50;9.82;;;;;;;;;;5050105;28;20565;-73
2022/12/03 03:38:25;;;;;;;15.95;9.80;;;;;;;;;;5029449;28;20052;-74
2022/12/03 03:40:52;;;;;;;15.73;10.05;;;;;;;;;;5030462;28;20076;-73
2022/12/03 03:43:18;;;;;;;17.13;10.45;;;;;;;;;;5048960;28;20055;-73
2022/12/03 03:45:45;;;;;;;15.75;10.40;;;;;;;;;;5033779;28;20041;-73
2022/12/03 03:48:12;;;;;;;15.25;10.02;;;;;;;;;;5050755;28;20045;-73
2022/12/03 03:50:38;;;;;;;14.10;9.38;;;;;;;;;;5041664;28;20595;-73
2022/12/03 03:53:04;;;;;;;17.23;10.48;;;;;;;;;;5027635;28;20037;-74
2022/12/03 03:55:30;;;;;;;15.52;9.75;;;;;;;;;;5029831;28;20045;-73
2022/12/03 03:57:56;;;;;;;17.20;9.60;;;;;;;;;;5048648;28;20063;-73
2022/12/03 04:00:23;;;;;;;17.10;10.07;;;;;;;;;;5030851;28;20056;-74
2022/12/03 04:02:48;;;;;;;15.93;10.23;;;;;;;;;;5036405;28;20439;-73
2022/12/03 04:05:16;;;;;;;14.85;10.52;;;;;;;;;;5033000;28;20046;-73
2022/12/03 04:07:42;;;;;;;17.88;10.18;;;;;;;;;;5025653;28;20112;-73
2022/12/03 04:12:56;;;;;;;14.52;10.10;;;;;;;;;;5049746;28;20049;-73
2022/12/03 04:15:23;;;;;;;15.85;10.23;;;;;;;;;;5049373;28;20110;-74
2022/12/03 04:18:41;;;;;;;16.23;10.98;;;;;;;;;;5030812;28;20120;-73
2022/12/03 04:20:35;;;;;;;15.20;10.68;;;;;;;;;;5050076;28;20128;-74
2022/12/03 04:23:01;;;;;;;18.63;11.27;;;;;;;;;;5045232;28;20048;-74
2022/12/03 04:30:57;;;;;;;18.92;11.80;;;;;;;;;;5029729;28;20053;-73
2022/12/03 04:36:07;;;;;;;16.90;11.30;;;;;;;;;;5042153;28;20037;-74
2022/12/03 04:38:33;;;;;;;16.77;11.02;;;;;;;;;;5043983;28;20044;-73
2022/12/03 04:40:59;;;;;;;19.25;11.20;;;;;;;;;;5024775;28;20086;-73
2022/12/03 04:43:25;;;;;;;16.88;11.32;;;;;;;;;;5024138;28;20053;-74
2022/12/03 04:45:51;;;;;;;19.70;11.18;;;;;;;;;;5023996;28;20485;-73
2022/12/03 04:48:17;;;;;;;18.98;12.45;;;;;;;;;;5027177;28;20496;-73
2022/12/03 04:50:44;;;;;;;18.73;11.25;;;;;;;;;;5020733;28;20705;-74
2022/12/03 04:53:10;;;;;;;18.88;11.45;;;;;;;;;;5042269;28;20041;-74
2022/12/03 04:55:36;;;;;;;20.40;12.65;;;;;;;;;;5026933;28;20052;-73
2022/12/03 04:58:02;;;;;;;20.38;12.95;;;;;;;;;;5023238;28;20041;-73
2022/12/03 05:00:28;;;;;;;19.90;12.93;;;;;;;;;;5038973;28;20045;-73
2022/12/03 05:02:54;;;;;;;18.60;12.40;;;;;;;;;;5026461;28;20057;-74
2022/12/03 05:05:20;;;;;;;17.45;11.18;;;;;;;;;;5042291;28;20053;-74
2022/12/03 05:07:46;;;;;;;20.80;12.73;;;;;;;;;;5021043;28;20091;-74
2022/12/03 05:10:12;;;;;;;16.52;11.73;;;;;;;;;;5024149;28;20809;-74
2022/12/03 05:12:38;;;;;;;19.52;12.45;;;;;;;;;;5022292;28;20049;-74
2022/12/03 05:15:04;;;;;;;18.40;11.98;;;;;;;;;;5016498;28;20048;-74
2022/12/03 05:17:31;;;;;;;19.40;12.27;;;;;;;;;;5019912;28;20045;-74
2022/12/03 05:22:41;;;;;;;18.58;11.82;;;;;;;;;;5022328;28;20290;-74
2022/12/03 05:25:07;;;;;;;19.10;12.15;;;;;;;;;;5017078;28;20049;-74
2022/12/03 05:27:33;;;;;;;19.55;12.45;;;;;;;;;;5035568;28;20087;-74
2022/12/03 05:30:00;;;;;;;19.80;12.45;;;;;;;;;;5020558;28;20049;-74
2022/12/03 05:32:26;;;;;;;20.75;13.77;;;;;;;;;;5020411;28;20057;-74
2022/12/03 05:34:52;;;;;;;18.73;12.20;;;;;;;;;;5020368;28;20029;-73
2022/12/03 05:37:18;;;;;;;18.67;12.10;;;;;;;;;;5024556;28;20134;-74
2022/12/03 05:39:44;;;;;;;19.17;12.15;;;;;;;;;;5008410;28;20124;-74
2022/12/03 05:44:54;;;;;;;23.10;12.88;;;;;;;;;;5040042;28;20049;-74
2022/12/03 05:47:20;;;;;;;19.20;12.60;;;;;;;;;;5024180;28;20045;-74
2022/12/03 05:49:46;;;;;;;21.85;12.48;;;;;;;;;;5042336;28;20048;-74
2022/12/03 05:52:12;;;;;;;18.77;11.82;;;;;;;;;;5040401;28;20041;-74
2022/12/03 05:54:38;;;;;;;20.25;12.25;;;;;;;;;;5023228;28;20497;-74
2022/12/03 05:57:04;;;;;;;17.83;12.02;;;;;;;;;;5041790;28;20048;-74
2022/12/03 05:59:30;;;;;;;21.05;11.80;;;;;;;;;;5021604;28;20051;-74
2022/12/03 06:01:56;;;;;;;18.38;10.95;;;;;;;;;;5044964;28;20045;-74
2022/12/03 06:04:25;;;;;;;18.65;12.43;;;;;;;;;;5049064;28;20464;-74
2022/12/03 06:06:51;;;;;;;18.10;11.88;;;;;;;;;;5046556;28;20198;-74
2022/12/03 06:09:17;;;;;;;17.88;10.65;;;;;;;;;;5021790;28;20049;-74
2022/12/03 06:11:43;;;;;;;19.40;12.38;;;;;;;;;;5030099;28;20116;-74
2022/12/03 06:14:09;;;;;;;18.05;11.90;;;;;;;;;;5022689;28;20095;-74
2022/12/03 06:16:35;;;;;;;18.65;11.13;;;;;;;;;;5021467;28;20559;-74
2022/12/03 06:19:01;;;;;;;19.45;11.98;;;;;;;;;;5041102;28;20111;-74
2022/12/03 06:21:27;;;;;;;19.63;12.00;;;;;;;;;;5041743;28;20167;-73
2022/12/03 06:23:53;;;;;;;19.85;11.85;;;;;;;;;;5025069;28;20056;-74
2022/12/03 06:26:19;;;;;;;18.30;11.70;;;;;;;;;;5026135;28;20748;-74
2022/12/03 06:28:46;;;;;;;18.58;11.88;;;;;;;;;;5027377;28;20087;-74
2022/12/03 06:31:13;;;;;;;17.13;11.02;;;;;;;;;;5045187;28;20056;-74
2022/12/03 06:33:39;;;;;;;19.95;11.55;;;;;;;;;;5024116;28;20059;-74
2022/12/03 06:36:05;;;;;;;17.75;10.45;;;;;;;;;;5032907;28;20048;-74
2022/12/03 06:38:31;;;;;;;16.88;9.18;;;;;;;;;;5052593;28;20048;-74
2022/12/03 06:40:57;;;;;;;17.33;10.60;;;;;;;;;;5042799;28;20045;-73
2022/12/03 06:43:23;;;;;;;15.38;11.18;;;;;;;;;;5050765;28;20132;-73
2022/12/03 06:45:49;;;;;;;17.80;11.63;;;;;;;;;;5032988;28;20083;-73
2022/12/03 06:48:15;;;;;;;16.45;10.52;;;;;;;;;;5053090;28;20076;-73
2022/12/03 06:50:41;;;;;;;16.90;10.18;;;;;;;;;;5037544;28;20051;-73
2022/12/03 06:53:07;;;;;;;17.63;11.07;;;;;;;;;;5031265;28;20045;-73
2022/12/03 06:55:33;;;;;;;18.55;10.95;;;;;;;;;;5041660;28;20042;-73
2022/12/03 06:58:02;;;;;;;14.82;10.38;;;;;;;;;;5045641;28;20496;-73
2022/12/03 07:00:28;;;;;;;16.63;10.98;;;;;;;;;;5050445;28;20079;-72
2022/12/03 07:02:54;;;;;;;17.38;10.68;;;;;;;;;;5034419;28;20076;-73
2022/12/03 07:05:23;;;;;;;16.33;10.98;;;;;;;;;;5032501;28;20036;-73
2022/12/03 07:07:50;;;;;;;17.13;10.68;;;;;;;;;;5044631;28;20540;-73
2022/12/03 07:10:20;;;;;;;14.98;10.25;;;;;;;;;;5045499;28;20046;-73
2022/12/03 07:12:46;;;;;;;16.25;10.60;;;;;;;;;;5036757;28;20041;-73
2022/12/03 07:15:12;;;;;;;16.02;9.45;;;;;;;;;;5035219;28;20376;-73
2022/12/03 07:17:38;;;;;;;16.90;9.90;;;;;;;;;;5053911;28;20374;-72
2022/12/03 07:20:05;;;;;;;17.27;10.85;;;;;;;;;;5032400;28;20095;-73
2022/12/03 07:22:31;;;;;;;15.90;10.60;;;;;;;;;;5024315;28;20496;-73
2022/12/03 07:24:57;;;;;;;16.85;10.70;;;;;;;;;;5022871;28;20045;-72
2022/12/03 07:27:23;;;;;;;17.63;9.75;;;;;;;;;;5024104;28;20049;-73
2022/12/03 07:29:49;;;;;;;16.73;10.85;;;;;;;;;;5025433;28;20473;-72
2022/12/03 07:32:15;;;;;;;18.10;10.90;;;;;;;;;;5031324;28;20450;-73
2022/12/03 07:34:41;;;;;;;20.17;11.30;;;;;;;;;;5026396;28;20049;-73
2022/12/03 07:37:07;;;;;;;17.08;10.15;;;;;;;;;;5029476;28;21638;-73
2022/12/03 07:39:33;;;;;;;16.55;9.88;;;;;;;;;;5024253;28;20116;-73
2022/12/03 07:41:59;;;;;;;16.42;10.80;;;;;;;;;;5027730;28;20085;-73
2022/12/03 07:44:25;;;;;;;16.27;10.90;;;;;;;;;;5044298;28;20036;-72
2022/12/03 07:46:51;;;;;;;17.25;10.93;;;;;;;;;;5043978;28;20507;-73
2022/12/03 07:49:17;;;;;;;18.13;10.98;;;;;;;;;;5046369;28;20064;-73
2022/12/03 07:51:52;;;;;;;18.70;10.43;;;;;;;;;;5040417;28;20053;-73
2022/12/03 07:54:18;;;;;;;15.77;10.45;;;;;;;;;;5042134;28;20378;-73
2022/12/03 07:56:46;;;;;;;17.35;11.00;;;;;;;;;;5039836;28;20053;-73
2022/12/03 07:59:12;;;;;;;18.98;10.70;;;;;;;;;;5043405;28;20045;-73
2022/12/03 08:01:38;;;;;;;15.52;9.88;;;;;;;;;;5045362;28;20106;-73
2022/12/03 08:04:04;;;;;;;18.63;10.52;;;;;;;;;;5033860;28;20101;-73
2022/12/03 08:06:30;;;;;;;16.70;10.02;;;;;;;;;;5023602;28;20060;-73
2022/12/03 08:08:56;;;;;;;16.08;9.80;;;;;;;;;;5019214;28;20041;-73
2022/12/03 08:11:22;;;;;;;13.75;9.45;;;;;;;;;;5021886;28;20095;-73
2022/12/03 08:13:48;;;;;;;17.58;10.38;;;;;;;;;;5021491;28;20047;-73
2022/12/03 08:16:17;;;;;;;17.50;10.82;;;;;;;;;;5041049;28;20132;-73
2022/12/03 08:18:43;;;;;;;15.80;10.73;;;;;;;;;;5041818;28;20075;-73
2022/12/03 08:21:16;;;;;;;17.63;11.07;;;;;;;;;;5025347;28;20440;-73
2022/12/03 08:23:43;;;;;;;18.50;10.13;;;;;;;;;;5021888;28;20499;-73
2022/12/03 08:26:19;;;;;;;15.27;10.15;;;;;;;;;;5025068;28;20075;-73
2022/12/03 08:28:45;;;;;;;16.23;9.80;;;;;;;;;;5022199;28;20045;-73
2022/12/03 08:31:18;;;;;;;16.63;10.90;;;;;;;;;;5042869;28;20465;-74
2022/12/03 08:33:44;;;;;;;16.23;10.00;;;;;;;;;;5029878;28;20765;-73
2022/12/03 08:36:29;;;;;;;18.13;10.95;;;;;;;;;;5046862;28;20786;-73
2022/12/03 08:38:56;;;;;;;19.45;11.15;;;;;;;;;;5039638;28;20072;-73
2022/12/03 08:44:10;;;;;;;17.25;10.07;;;;;;;;;;5039135;28;20063;-73
2022/12/03 08:46:36;;;;;;;20.00;11.10;;;;;;;;;;5040552;28;20057;-73
2022/12/03 08:49:04;;;;;;;17.58;10.65;;;;;;;;;;5027678;28;20111;-73
2022/12/03 08:51:30;;;;;;;16.67;10.95;;;;;;;;;;5040965;28;20109;-73
2022/12/03 08:54:04;;;;;;;17.55;10.40;;;;;;;;;;5041783;28;20055;-73
2022/12/03 08:56:33;;;;;;;17.58;10.93;;;;;;;;;;5022396;28;20123;-73
2022/12/03 08:58:59;;;;;;;16.75;10.68;;;;;;;;;;5030283;28;20764;-73
2022/12/03 09:01:29;;;;;;;17.08;11.50;;;;;;;;;;5029332;28;20072;-73
2022/12/03 09:03:57;;;;;;;16.80;11.02;;;;;;;;;;5028492;28;20492;-73
2022/12/03 09:06:23;;;;;;;15.80;9.88;;;;;;;;;;5045337;28;20037;-73
2022/12/03 09:08:49;;;;;;;25.67;14.45;;;;;;;;;;5028990;28;20044;-73
2022/12/03 09:11:15;;;;;;;17.23;10.27;;;;;;;;;;5026509;28;20546;-73
2022/12/03 09:13:41;;;;;;;16.38;10.05;;;;;;;;;;5047418;28;20103;-73
2022/12/03 09:16:07;;;;;;;16.00;9.68;;;;;;;;;;5049347;28;20497;-72
2022/12/03 09:18:33;;;;;;;15.95;9.80;;;;;;;;;;5029258;28;20041;-73
2022/12/03 09:20:59;;;;;;;20.20;10.70;;;;;;;;;;5044053;28;20068;-72
2022/12/03 09:23:25;;;;;;;16.08;10.50;;;;;;;;;;5021635;28;20091;-72
2022/12/03 09:25:51;;;;;;;19.30;10.40;;;;;;;;;;5044097;28;20193;-73
2022/12/03 09:28:20;;;;;;;17.33;9.75;;;;;;;;;;5026481;28;20049;-70
2022/12/03 09:30:46;;;;;;;16.67;10.90;;;;;;;;;;5046181;28;20124;-72
2022/12/03 09:33:12;;;;;;;15.45;10.05;;;;;;;;;;5026991;28;20080;-73
2022/12/03 09:35:38;;;;;;;16.42;10.60;;;;;;;;;;5029998;28;20057;-72
2022/12/03 09:38:04;;;;;;;16.17;10.05;;;;;;;;;;5040662;28;20114;-73
2022/12/03 09:40:30;;;;;;;17.30;10.88;;;;;;;;;;5027087;28;20052;-73
2022/12/03 09:42:59;;;;;;;17.55;11.10;;;;;;;;;;5025061;28;20393;-73
2022/12/03 09:45:25;;;;;;;18.25;11.52;;;;;;;;;;5041919;28;20041;-73
2022/12/03 09:47:52;;;;;;;16.80;10.02;;;;;;;;;;5028782;28;20435;-73
2022/12/03 09:50:22;;;;;;;16.83;10.57;;;;;;;;;;5047965;28;20115;-73
2022/12/03 09:52:50;;;;;;;16.48;10.30;;;;;;;;;;5030103;28;20057;-73
2022/12/03 09:55:18;;;;;;;17.80;10.55;;;;;;;;;;5046285;28;20045;-73
2022/12/03 09:57:44;;;;;;;17.58;10.98;;;;;;;;;;5047548;28;20404;-73
2022/12/03 10:00:20;;;;;;;14.93;10.55;;;;;;;;;;5025411;28;20036;-73
2022/12/03 10:02:47;;;;;;;16.77;11.13;;;;;;;;;;5028286;28;20053;-73
2022/12/03 10:05:14;;;;;;;18.58;10.95;;;;;;;;;;5045769;28;20044;-75
2022/12/03 10:07:40;;;;;;;18.70;10.77;;;;;;;;;;5055375;28;20037;-76
2022/12/03 10:10:07;;;;;;;18.98;11.07;;;;;;;;;;5032797;28;20049;-75
2022/12/03 10:12:33;;;;;;;22.27;11.85;;;;;;;;;;5024976;28;20068;-75
2022/12/03 10:14:59;;;;;;;19.92;11.00;;;;;;;;;;5046537;28;20090;-74
2022/12/03 10:17:27;;;;;;;21.20;13.13;;;;;;;;;;5029847;28;20531;-75
2022/12/03 10:19:53;;;;;;;20.10;11.65;;;;;;;;;;5044001;28;20068;-75
2022/12/03 10:22:19;;;;;;;16.23;10.68;;;;;;;;;;5039936;28;20103;-74
2022/12/03 10:24:45;;;;;;;16.42;10.88;;;;;;;;;;5047960;28;20037;-74
2022/12/03 10:27:27;;;;;;;18.15;10.93;;;;;;;;;;5035633;28;20099;-75
2022/12/03 10:29:55;;;;;;;16.52;11.07;;;;;;;;;;5049452;28;20048;-75
2022/12/03 10:32:24;;;;;;;17.67;10.50;;;;;;;;;;5043268;28;20073;-75
2022/12/03 10:34:50;;;;;;;20.27;11.90;;;;;;;;;;5031975;28;20133;-72
2022/12/03 10:37:20;;;;;;;17.98;10.70;;;;;;;;;;5030133;28;20508;-73
2022/12/03 10:39:54;;;;;;;16.40;10.95;;;;;;;;;;5036624;28;20056;-72
2022/12/03 10:42:20;;;;;;;16.88;11.35;;;;;;;;;;5032427;28;20053;-73
2022/12/03 10:44:46;;;;;;;20.15;12.48;;;;;;;;;;5048490;28;20041;-74
2022/12/03 10:47:13;;;;;;;20.00;12.05;;;;;;;;;;5046297;28;20192;-73
2022/12/03 10:49:40;;;;;;;20.15;12.15;;;;;;;;;;5029287;28;20120;-73
2022/12/03 10:52:12;;;;;;;17.05;11.32;;;;;;;;;;5034381;28;20621;-73
2022/12/03 10:54:38;;;;;;;19.58;12.52;;;;;;;;;;5044716;28;20052;-73
2022/12/03 10:57:04;;;;;;;20.67;12.50;;;;;;;;;;5032629;28;20049;-73
2022/12/03 10:59:33;;;;;;;18.40;12.30;;;;;;;;;;5047571;28;20500;-73
2022/12/03 11:01:59;;;;;;;18.42;12.55;;;;;;;;;;5024493;28;20048;-71
2022/12/03 11:04:33;;;;;;;19.67;12.60;;;;;;;;;;5044685;28;20041;-75
2022/12/03 11:06:59;;;;;;;;;;;;;;;;;;5032070;28;20144;-73
2022/12/03 11:09:30;;;;;;;19.17;12.18;;;;;;;;;;5032809;28;19927;-73
2022/12/03 11:12:02;;;;;;;20.38;13.18;;;;;;;;;;5031503;28;20359;-73
2022/12/03 11:14:56;;;;;;;19.40;12.98;;;;;;;;;;5052122;28;20045;-73
2022/12/03 11:17:40;;;;;;;20.50;12.50;;;;;;;;;;5038178;28;20580;-73
2022/12/03 11:20:33;;;;;;;20.15;12.55;;;;;;;;;;5029310;28;20049;-73
2022/12/03 11:22:59;;;;;;;19.42;11.95;;;;;;;;;;5015646;28;20136;-73
2022/12/03 11:25:25;;;;;;;19.70;12.35;;;;;;;;;;5044672;28;20568;-73
2022/12/03 11:28:09;;;;;;;18.92;11.63;;;;;;;;;;5015121;28;20053;-75
2022/12/03 11:30:48;;;;;;;23.80;14.15;;;;;;;;;;5035592;28;20481;-71
2022/12/03 11:33:21;;;;;;;26.02;15.80;;;;;;;;;;5031018;28;20099;-71
2022/12/03 11:36:02;;;;;;;22.33;13.50;;;;;;;;;;5049204;28;20043;-72
2022/12/03 11:38:40;;;;;;;21.27;13.18;;;;;;;;;;5049463;28;20052;-74
2022/12/03 11:41:17;;;;;;;20.05;12.20;;;;;;;;;;5051127;28;20049;-73
2022/12/03 11:43:54;;;;;;;20.48;13.48;;;;;;;;;;5034631;28;20451;-72
2022/12/03 11:46:37;;;;;;;21.15;12.93;;;;;;;;;;5047960;28;20041;-74
2022/12/03 11:49:22;;;;;;;18.85;11.90;;;;;;;;;;5047998;28;20057;-75
2022/12/03 11:51:48;;;;;;;19.00;12.30;;;;;;;;;;5030339;28;20098;-75
2022/12/03 11:54:16;;;;;;;17.85;12.05;;;;;;;;;;5048119;28;20044;-75
2022/12/03 11:56:47;;;;;;;19.92;12.07;;;;;;;;;;5050068;28;20041;-75
2022/12/03 11:59:14;;;;;;;21.55;13.05;;;;;;;;;;5033208;28;20072;-75
2022/12/03 12:01:40;;;;;;;18.55;12.30;;;;;;;;;;5050398;28;20043;-75
2022/12/03 12:04:08;;;;;;;19.88;13.13;;;;;;;;;;5033699;28;20049;-75
2022/12/03 12:06:44;;;;;;;19.10;12.40;;;;;;;;;;5050208;28;20576;-75
2022/12/03 12:09:10;;;;;;;20.85;12.70;;;;;;;;;;5032439;28;20456;-75
2022/12/03 12:11:39;;;;;;;20.33;12.73;;;;;;;;;;5044670;28;20073;-75
2022/12/03 12:14:09;;;;;;;18.48;11.85;;;;;;;;;;5033251;28;20080;-75
2022/12/03 12:16:49;;;;;;;17.95;12.23;;;;;;;;;;5046682;28;20493;-75
2022/12/03 12:19:34;;;;;;;18.90;12.35;;;;;;;;;;5042914;28;20375;-75
2022/12/03 12:22:15;;;;;;;19.77;11.50;;;;;;;;;;5046910;28;20044;-75
2022/12/03 12:24:44;;;;;;;22.20;12.50;;;;;;;;;;5034241;28;20057;-75
2022/12/03 12:27:14;;;;;;;17.95;11.43;;;;;;;;;;5048947;28;20056;-75
2022/12/03 12:29:42;;;;;;;19.83;12.18;;;;;;;;;;5032385;28;20153;-75
2022/12/03 12:32:08;;;;;;;20.25;12.10;;;;;;;;;;5050588;28;20125;-75
2022/12/03 12:34:36;;;;;;;17.83;11.70;;;;;;;;;;5034122;28;20095;-75
2022/12/03 12:37:03;;;;;;;20.30;11.98;;;;;;;;;;5031250;28;20053;-75
2022/12/03 12:39:30;;;;;;;17.23;11.55;;;;;;;;;;5032853;28;20052;-75
2022/12/03 12:41:57;;;;;;;19.90;12.27;;;;;;;;;;5029459;28;20135;-75
2022/12/03 12:44:25;;;;;;;20.35;12.57;;;;;;;;;;5048297;28;20060;-75
2022/12/03 12:46:53;;;;;;;18.48;12.00;;;;;;;;;;5050551;28;20138;-75
2022/12/03 12:49:25;;;;;;;18.80;11.77;;;;;;;;;;5050998;28;20171;-75
2022/12/03 12:51:51;;;;;;;18.70;11.32;;;;;;;;;;5029258;28;20459;-75
2022/12/03 12:54:17;;;;;;;19.90;12.48;;;;;;;;;;5032944;28;20049;-75
2022/12/03 12:56:45;;;;;;;17.42;11.40;;;;;;;;;;5026300;28;20049;-75
2022/12/03 12:59:15;;;;;;;19.48;12.25;;;;;;;;;;5037324;28;20089;-74
2022/12/03 13:01:42;;;;;;;19.42;11.88;;;;;;;;;;5047525;28;20138;-75
2022/12/03 13:04:19;;;;;;;18.65;12.55;;;;;;;;;;5043762;28;20091;-74
2022/12/03 13:06:47;;;;;;;18.38;11.73;;;;;;;;;;5028732;28;20045;-75
2022/12/03 13:09:17;;;;;;;19.55;12.20;;;;;;;;;;5030035;28;20041;-75
2022/12/03 13:11:44;;;;;;;20.45;12.45;;;;;;;;;;5046617;28;20055;-75
2022/12/03 13:14:20;;;;;;;21.83;13.20;;;;;;;;;;5017242;28;20052;-75
2022/12/03 13:16:47;;;;;;;21.63;13.10;;;;;;;;;;5031586;28;20052;-75
2022/12/03 13:19:20;;;;;;;22.02;12.95;;;;;;;;;;5049541;28;20076;-75
2022/12/03 13:21:46;;;;;;;20.63;13.20;;;;;;;;;;5048579;28;20052;-75
2022/12/03 13:24:31;;;;;;;20.33;12.45;;;;;;;;;;5043784;28;20061;-75
2022/12/03 13:26:58;;;;;;;18.60;12.40;;;;;;;;;;5031084;28;20061;-75
2022/12/03 13:29:25;;;;;;;20.20;12.85;;;;;;;;;;5050815;28;20048;-75
2022/12/03 13:31:58;;;;;;;21.73;13.07;;;;;;;;;;5028618;28;20048;-76
2022/12/03 13:34:32;;;;;;;22.73;13.30;;;;;;;;;;5029167;28;20080;-74
2022/12/03 13:36:59;;;;;;;18.42;12.48;;;;;;;;;;5044374;28;20481;-74
2022/12/03 13:39:33;;;;;;;19.63;11.75;;;;;;;;;;5031835;28;20084;-75
2022/12/03 13:45:00;;;;;;;22.83;13.73;;;;;;;;;;5049389;28;20056;-74
2022/12/03 13:47:27;;;;;;;22.70;13.88;;;;;;;;;;5031952;28;21861;-74
2022/12/03 13:49:54;;;;;;;20.35;13.38;;;;;;;;;;5036176;28;20128;-78
2022/12/03 13:52:21;;;;;;;21.67;13.45;;;;;;;;;;5023682;28;20051;-74
2022/12/03 13:54:49;;;;;;;22.20;13.57;;;;;;;;;;5051026;28;20041;-74
2022/12/03 13:57:15;;;;;;;20.40;13.55;;;;;;;;;;5047951;28;20515;-74
2022/12/03 13:59:41;;;;;;;22.52;13.23;;;;;;;;;;5033176;28;20076;-73
2022/12/03 14:02:08;;;;;;;21.13;13.05;;;;;;;;;;5047283;28;20040;-72
2022/12/03 14:04:34;;;;;;;23.05;13.02;;;;;;;;;;5036349;28;20049;-73
2022/12/03 14:07:00;;;;;;;20.33;12.93;;;;;;;;;;5032406;28;20041;-75
2022/12/03 14:09:26;;;;;;;22.88;13.38;;;;;;;;;;5034743;28;20045;-74
2022/12/03 14:14:37;;;;;;;23.35;14.85;;;;;;;;;;5043208;28;20084;-73
2022/12/03 14:17:03;;;;;;;22.60;13.75;;;;;;;;;;5045788;28;20044;-74
2022/12/03 14:19:30;;;;;;;22.98;14.05;;;;;;;;;;5034997;28;20128;-73
2022/12/03 14:21:56;;;;;;;23.92;14.95;;;;;;;;;;5033527;28;20450;-73
2022/12/03 14:24:22;;;;;;;20.58;12.70;;;;;;;;;;5037029;28;20111;-73
2022/12/03 14:26:48;;;;;;;22.73;14.55;;;;;;;;;;5046788;28;20485;-75
2022/12/03 14:29:14;;;;;;;24.45;14.55;;;;;;;;;;5047401;28;20068;-76
2022/12/03 14:31:40;;;;;;;23.27;14.25;;;;;;;;;;5053786;28;20081;-76
2022/12/03 14:34:06;;;;;;;27.35;15.63;;;;;;;;;;5032073;28;20037;-74
2022/12/03 14:36:32;;;;;;;23.45;14.52;;;;;;;;;;5034163;28;20136;-75
2022/12/03 14:38:58;;;;;;;21.60;14.50;;;;;;;;;;5051854;28;20033;-75
2022/12/03 14:44:08;;;;;;;21.95;13.65;;;;;;;;;;5033528;28;20037;-75
2022/12/03 14:46:34;;;;;;;22.02;13.90;;;;;;;;;;5053787;28;20041;-75
2022/12/03 14:49:00;;;;;;;24.08;14.48;;;;;;;;;;5051021;28;20111;-76
2022/12/03 14:51:26;;;;;;;22.40;14.05;;;;;;;;;;5035105;28;20437;-76
2022/12/03 14:53:52;;;;;;;21.55;14.13;;;;;;;;;;5034033;28;20080;-75